Terminal Aerodrome Forecast
Issued by NWS

Home | Current Version | Previous Version | Text Only | Print | Product List | Glossary Off
Versions: 1 2 3 4 5 6 7 8 9 10 11 12 13 14 15 16 17

000
FTUS42 KMHX 302349
TAFISO
TAF
KISO 302349Z 3100/3124 00000KT P6SM BKN100 OVC200
     FM310200 18003KT P6SM VCSH BKN050
     FM310600 VRB03KT 5SM -RA BR OVC015
     FM311400 15007KT P6SM VCSH BKN035
      AMD LTD TO CLD VIS AND WIND=

USA.gov is the U.S. government's official web portal to all federal, state and local government web resources and services.